This is the latest recevied weather packets stored in our database for station/object DH9SB-6. If no packets are shown the sender has not sent any weather packets the latest 10 day(s).
| Time | Temp. | Humidity | Pressure | Rain* | Wind** | Luminosity | Snow |
|---|---|---|---|---|---|---|---|
| 1777718556 | 24.44° C | 30% | - | 0 mm | - | - | - |
| 1777717983 | 23.89° C | 32% | - | 0 mm | - | - | - |
| 1777717359 | 23.33° C | 32% | - | 0 mm | - | - | - |
| 1777716780 | 22.78° C | 32% | - | 0 mm | - | - | - |
| 1777716160 | 22.78° C | 32% | - | 0 mm | - | - | - |
| 1777715580 | 23.33° C | 31% | - | 0 mm | - | - | - |
| 1777714956 | 23.33° C | 33% | - | 0 mm | - | - | - |
| 1777714380 | 22.78° C | 32% | - | 0 mm | - | - | - |
| 1777713756 | 23.33° C | 33% | - | 0 mm | - | - | - |
| 1777713180 | 22.78° C | 33% | - | 0 mm | - | - | - |
| 1777712557 | 22.78° C | 34% | - | 0 mm | - | - | - |
| 1777711979 | 22.22° C | 36% | - | 0 mm | - | - | - |
| 1777711358 | 21.67° C | 38% | - | 0 mm | - | - | - |
| 1777710780 | 22.22° C | 36% | - | 0 mm | - | - | - |
| 1777710156 | 22.22° C | 36% | - | 0 mm | - | - | - |
| 1777709581 | 22.22° C | 35% | - | 0 mm | - | - | - |
| 1777708957 | 22.22° C | 33% | - | 0 mm | - | - | - |
| 1777708381 | 22.22° C | 35% | - | 0 mm | - | - | - |
| 1777707757 | 21.67° C | 36% | - | 0 mm | - | - | - |
| 1777707181 | 21.11° C | 38% | - | 0 mm | - | - | - |
| 1777706558 | 20° C | 40% | - | 0 mm | - | - | - |
| 1777705980 | 18.89° C | 43% | - | 0 mm | - | - | - |
| 1777705357 | 16.67° C | 52% | - | 0 mm | - | - | - |
| 1777704781 | 15° C | 54% | - | 0 mm | - | - | - |
| 1777704156 | 14.44° C | 54% | - | 0 mm | - | - | - |
* Rain latest hour (hover to see other rain measurements)
** Current wind speed in m/s (hover to see current wind gust speed)